Time;durP1;ratioP1;P1;durP2;ratioP2;P2;SDS_P1;SDS_P2;PMS_P1;PMS_P2;Temp;Humidity;BMP_temperature;BMP_pressure;BME280_temperature;BME280_humidity;BME280_pressure;Samples;Min_cycle;Max_cycle;Signal;HPM_P1;HPM_P2
2023/12/09 00:00:57;;;;;;;7.32;2.55;;;7.60;99.90;;;7.48;100.00;100671.09;5253389;28;20067;-50
2023/12/09 00:03:30;;;;;;;5.32;2.45;;;7.60;99.90;;;7.47;100.00;100673.63;5259012;28;20040;-48
2023/12/09 00:06:02;;;;;;;5.97;2.67;;;7.60;99.90;;;7.47;100.00;100668.44;5262142;28;20040;-48
2023/12/09 00:08:36;;;;;;;5.53;2.47;;;7.60;99.90;;;7.47;100.00;100671.03;5248603;28;20051;-49
2023/12/09 00:11:08;;;;;;;7.47;2.65;;;7.60;99.90;;;7.47;100.00;100686.59;5255905;28;20060;-49
2023/12/09 00:13:41;;;;;;;4.65;2.50;;;7.60;99.90;;;7.49;100.00;100687.56;5258696;28;20047;-48
2023/12/09 00:16:13;;;;;;;4.85;2.20;;;7.60;99.90;;;7.50;100.00;100681.56;5243688;28;20055;-49
2023/12/09 00:18:46;;;;;;;5.75;2.75;;;7.60;99.90;;;7.51;100.00;100683.34;5261668;28;20558;-49
2023/12/09 00:21:18;;;;;;;4.22;2.08;;;7.60;99.90;;;7.52;100.00;100679.94;5260990;28;20048;-49
2023/12/09 00:23:52;;;;;;;5.63;2.50;;;7.70;99.90;;;7.51;100.00;100678.16;5242177;28;20754;-48
2023/12/09 00:26:27;;;;;;;4.90;2.40;;;7.60;99.90;;;7.51;100.00;100686.81;5245421;28;20040;-49
2023/12/09 00:29:00;;;;;;;5.18;2.10;;;7.70;99.90;;;7.51;100.00;100691.13;5248812;28;20052;-54
2023/12/09 00:31:32;;;;;;;6.03;2.65;;;7.60;99.90;;;7.50;100.00;100681.56;5262114;28;20093;-49
2023/12/09 00:34:05;;;;;;;5.75;2.42;;;7.60;99.90;;;7.48;100.00;100686.66;5261766;28;20114;-48
2023/12/09 00:36:38;;;;;;;5.60;2.10;;;7.60;99.90;;;7.47;100.00;100679.72;5254233;28;20499;-50
2023/12/09 00:39:12;;;;;;;4.38;2.45;;;7.60;99.90;;;7.47;100.00;100673.63;5259722;28;20045;-53
2023/12/09 00:41:44;;;;;;;6.03;2.70;;;7.60;99.90;;;7.45;100.00;100678.75;5260984;28;20052;-54
2023/12/09 00:44:20;;;;;;;5.25;2.70;;;7.60;99.90;;;7.45;100.00;100673.56;5264594;28;20048;-51
2023/12/09 00:46:53;;;;;;;6.20;2.42;;;7.60;99.90;;;7.46;100.00;100682.25;5263085;28;20130;-51
2023/12/09 00:49:25;;;;;;;6.75;2.75;;;7.60;99.90;;;7.45;100.00;100690.84;5258191;28;20040;-48
2023/12/09 00:51:57;;;;;;;7.55;2.83;;;7.60;99.90;;;7.45;100.00;100683.06;5260816;28;20052;-50
2023/12/09 00:54:31;;;;;;;4.68;2.13;;;7.60;99.90;;;7.45;100.00;100688.25;5261161;28;20044;-48
2023/12/09 00:57:04;;;;;;;6.20;2.25;;;7.60;99.90;;;7.46;100.00;100697.81;5262089;28;20040;-48
2023/12/09 00:59:37;;;;;;;3.97;2.10;;;7.60;99.90;;;7.47;100.00;100689.19;5242015;28;20044;-49
2023/12/09 01:02:09;;;;;;;3.70;2.08;;;7.60;99.90;;;7.46;100.00;100695.22;5244884;28;20537;-51
2023/12/09 01:04:42;;;;;;;6.30;2.60;;;7.60;99.90;;;7.45;100.00;100691.72;5262015;28;20051;-49
2023/12/09 01:07:14;;;;;;;4.45;2.25;;;7.60;99.90;;;7.45;100.00;100693.44;5257878;28;20454;-50
2023/12/09 01:09:48;;;;;;;4.53;2.33;;;7.60;99.90;;;7.46;100.00;100697.81;5262609;28;20093;-48
2023/12/09 01:12:21;;;;;;;4.60;2.30;;;7.60;99.90;;;7.47;100.00;100694.38;5257630;28;20056;-48
2023/12/09 01:14:53;;;;;;;4.53;2.22;;;7.60;99.90;;;7.49;100.00;100700.53;5262215;28;20062;-51
2023/12/09 01:17:25;;;;;;;6.00;2.70;;;7.60;99.90;;;7.51;100.00;100701.50;5258168;28;20518;-54
2023/12/09 01:19:58;;;;;;;7.25;2.45;;;7.60;99.90;;;7.51;100.00;100696.31;5261882;28;20048;-52
2023/12/09 01:22:30;;;;;;;5.68;2.38;;;7.60;99.90;;;7.54;100.00;100699.03;5241046;28;20044;-49
2023/12/09 01:25:05;;;;;;;3.90;2.08;;;7.70;99.90;;;7.54;100.00;100701.63;5261457;28;20055;-52
2023/12/09 01:27:37;;;;;;;3.63;2.00;;;7.60;99.90;;;7.54;100.00;100699.91;5262081;28;20620;-48
2023/12/09 01:30:13;;;;;;;4.43;2.42;;;7.70;99.90;;;7.54;100.00;100686.94;5262515;28;20057;-49
2023/12/09 01:32:45;;;;;;;5.43;2.33;;;7.70;99.90;;;7.53;100.00;100682.59;5265461;28;20056;-51
2023/12/09 01:35:18;;;;;;;5.80;2.20;;;7.70;99.90;;;7.55;100.00;100678.34;5263241;28;20056;-50
2023/12/09 01:37:50;;;;;;;8.32;2.55;;;7.70;99.90;;;7.57;100.00;100686.22;5265748;28;20072;-47
2023/12/09 01:40:24;;;;;;;4.13;2.15;;;7.70;99.90;;;7.56;100.00;100685.34;5261989;28;20358;-52
2023/12/09 01:42:56;;;;;;;4.22;2.15;;;7.70;99.90;;;7.57;100.00;100681.03;5264553;28;20064;-48
2023/12/09 01:45:29;;;;;;;3.92;1.92;;;7.70;99.90;;;7.57;100.00;100686.22;5246942;28;20041;-53
2023/12/09 01:48:01;;;;;;;4.43;2.08;;;7.70;99.90;;;7.57;100.00;100681.03;5241319;28;20127;-50
2023/12/09 01:50:36;;;;;;;3.85;1.58;;;7.70;99.90;;;7.59;100.00;100677.66;5249687;28;20048;-49
2023/12/09 01:53:09;;;;;;;4.50;1.92;;;7.70;99.90;;;7.60;100.00;100681.16;5261176;28;20052;-53
2023/12/09 01:55:44;;;;;;;4.57;1.80;;;7.70;99.90;;;7.62;100.00;100679.50;5248560;28;20044;-50
2023/12/09 01:58:17;;;;;;;3.60;1.50;;;7.70;99.90;;;7.62;100.00;100676.91;5263873;28;20098;-48
2023/12/09 02:00:50;;;;;;;3.55;1.65;;;7.80;99.90;;;7.63;100.00;100670.94;5265147;28;20494;-48
2023/12/09 02:03:22;;;;;;;7.32;1.70;;;7.80;99.90;;;7.66;100.00;100677.94;5261102;28;20562;-48
2023/12/09 02:05:55;;;;;;;4.57;1.77;;;7.80;99.90;;;7.68;100.00;100674.59;5263988;28;20040;-48
2023/12/09 02:08:30;;;;;;;4.18;1.50;;;7.80;99.90;;;7.71;100.00;100674.75;5261600;28;20667;-52
2023/12/09 02:11:17;;;;;;;4.05;1.77;;;7.80;99.90;;;7.71;100.00;100673.84;5256259;28;20059;-49
2023/12/09 02:14:00;;;;;;;2.67;1.13;;;7.80;99.90;;;7.72;100.00;100670.44;5258534;28;20704;-54
2023/12/09 02:16:42;;;;;;;5.43;1.42;;;7.90;99.90;;;7.74;100.00;100663.59;5261440;28;20125;-52
2023/12/09 02:19:15;;;;;;;4.50;1.80;;;7.90;99.90;;;7.72;100.00;100670.44;5244767;28;20093;-49
2023/12/09 02:22:02;;;;;;;3.95;1.67;;;7.90;99.90;;;7.69;100.00;100665.09;5264356;28;20052;-50
2023/12/09 02:24:36;;;;;;;9.38;2.22;;;7.80;99.90;;;7.66;100.00;100655.47;5245934;28;20099;-51
2023/12/09 02:27:12;;;;;;;2.97;1.67;;;7.80;99.90;;;7.60;100.00;100655.22;5244368;28;20052;-50
2023/12/09 02:29:55;;;;;;;3.42;1.77;;;7.80;99.90;;;7.53;100.00;100645.38;5264632;28;20064;-49
2023/12/09 02:32:31;;;;;;;4.20;1.90;;;7.70;99.90;;;7.47;100.00;100639.91;5260996;28;20055;-48
2023/12/09 02:35:08;;;;;;;4.25;1.90;;;7.70;99.90;;;7.43;100.00;100638.00;5265164;28;20065;-48
2023/12/09 02:37:41;;;;;;;6.20;1.75;;;7.60;99.90;;;7.38;100.00;100634.34;5257341;28;20454;-48
2023/12/09 02:40:17;;;;;;;4.28;1.67;;;7.60;99.90;;;7.35;100.00;100629.88;5260578;28;20044;-48
2023/12/09 02:42:50;;;;;;;5.07;2.08;;;7.60;99.90;;;7.30;100.00;100624.50;5250051;28;20055;-51
2023/12/09 02:45:23;;;;;;;4.68;1.80;;;7.50;99.90;;;7.28;100.00;100628.72;5261953;28;20410;-48
2023/12/09 02:47:55;;;;;;;3.30;1.63;;;7.40;99.90;;;7.24;100.00;100638.91;5249803;28;20058;-54
2023/12/09 02:50:27;;;;;;;4.63;1.80;;;7.40;99.90;;;7.20;100.00;100643.03;5261688;28;20051;-49
2023/12/09 02:53:00;;;;;;;3.97;1.58;;;7.40;99.90;;;7.18;100.00;100639.50;5263630;28;20062;-49
2023/12/09 02:55:33;;;;;;;3.10;1.83;;;7.40;99.90;;;7.15;100.00;100639.34;5244605;28;20045;-48
2023/12/09 02:58:06;;;;;;;3.85;1.73;;;7.30;99.90;;;7.14;100.00;100640.16;5258216;28;20163;-49
2023/12/09 03:00:38;;;;;;;4.13;1.48;;;7.30;99.90;;;7.13;100.00;100641.00;5263992;28;20114;-50
2023/12/09 03:03:11;;;;;;;4.55;2.08;;;7.30;99.90;;;7.13;100.00;100641.00;5260779;28;20052;-54
2023/12/09 03:05:43;;;;;;;3.30;1.73;;;7.30;99.90;;;7.10;100.00;100646.00;5264128;28;20060;-49
2023/12/09 03:08:15;;;;;;;6.38;1.98;;;7.30;99.90;;;7.09;100.00;100641.66;5260958;28;20411;-49
2023/12/09 03:10:49;;;;;;;4.97;1.98;;;7.30;99.90;;;7.08;100.00;100645.94;5263873;28;20087;-52
2023/12/09 03:13:22;;;;;;;3.42;1.95;;;7.20;99.90;;;7.06;100.00;100633.75;5260567;28;20060;-48
2023/12/09 03:15:54;;;;;;;3.60;1.85;;;7.20;99.90;;;7.03;100.00;100636.19;5259495;28;20110;-53
2023/12/09 03:18:26;;;;;;;4.15;2.00;;;7.20;99.90;;;6.98;100.00;100624.75;5247453;28;20048;-50
2023/12/09 03:20:59;;;;;;;4.78;1.90;;;7.20;99.90;;;6.94;100.00;100621.09;5263690;28;20056;-49
2023/12/09 03:23:31;;;;;;;5.97;2.50;;;7.10;99.90;;;6.91;100.00;100617.47;5249550;28;20040;-49
2023/12/09 03:26:15;;;;;;;3.75;2.00;;;7.10;99.90;;;6.87;100.00;100613.88;5263586;28;20071;-47
2023/12/09 03:28:48;;;;;;;5.05;2.03;;;7.10;99.90;;;6.82;100.00;100612.75;5239730;28;20055;-49
2023/12/09 03:31:21;;;;;;;5.30;2.20;;;7.00;99.90;;;6.82;100.00;100614.47;5260659;28;20052;-48
2023/12/09 03:33:53;;;;;;;5.38;2.20;;;7.00;99.90;;;6.78;100.00;100603.97;5249286;28;20048;-50
2023/12/09 03:36:26;;;;;;;5.70;2.10;;;7.00;99.90;;;6.74;100.00;100602.03;5264145;28;20044;-48
2023/12/09 03:38:58;;;;;;;4.82;2.05;;;7.00;99.90;;;6.70;100.00;100602.69;5249757;28;20063;-50
2023/12/09 03:41:32;;;;;;;5.93;3.03;;;6.90;99.90;;;6.66;100.00;100592.16;5261910;28;20048;-51
2023/12/09 03:44:05;;;;;;;5.85;2.40;;;6.90;99.90;;;6.61;100.00;100602.28;5250065;28;20059;-47
2023/12/09 03:46:37;;;;;;;6.70;2.65;;;6.90;99.90;;;6.58;100.00;100593.47;5260589;28;20083;-53
2023/12/09 03:49:09;;;;;;;7.28;2.55;;;6.80;99.90;;;6.57;100.00;100602.06;5262982;28;20527;-50
2023/12/09 03:51:42;;;;;;;5.50;2.40;;;6.80;99.90;;;6.54;100.00;100589.84;5246681;28;20167;-50
2023/12/09 03:54:14;;;;;;;5.82;2.40;;;6.80;99.90;;;6.55;100.00;100601.97;5260252;28;20437;-50
2023/12/09 03:56:48;;;;;;;6.45;2.58;;;6.80;99.90;;;6.55;100.00;100591.63;5261266;28;20040;-48
2023/12/09 03:59:21;;;;;;;3.95;2.13;;;6.80;99.90;;;6.52;100.00;100601.84;5245084;28;20066;-53
2023/12/09 04:01:53;;;;;;;5.75;2.22;;;6.80;99.90;;;6.51;100.00;100579.34;5262463;28;20074;-48
2023/12/09 04:04:30;;;;;;;5.88;2.47;;;6.70;99.90;;;6.49;100.00;100596.50;5247997;28;20075;-52
2023/12/09 04:07:02;;;;;;;9.45;2.30;;;6.70;99.90;;;6.46;100.00;100584.31;5256398;28;20121;-51
2023/12/09 04:09:35;;;;;;;5.80;2.10;;;6.70;99.90;;;6.44;100.00;100593.69;5258736;28;20055;-50
2023/12/09 04:12:09;;;;;;;5.82;2.10;;;6.70;99.90;;;6.44;100.00;100579.84;5256569;28;20571;-51
2023/12/09 04:14:44;;;;;;;3.95;2.03;;;6.70;99.90;;;6.43;100.00;100570.31;5260244;28;20044;-48
2023/12/09 04:17:19;;;;;;;3.85;2.15;;;6.70;99.90;;;6.42;100.00;100569.44;5260637;28;20152;-51
2023/12/09 04:19:52;;;;;;;3.65;1.90;;;6.70;99.90;;;6.42;100.00;100563.38;5263986;28;20052;-49
2023/12/09 04:22:25;;;;;;;6.45;2.30;;;6.70;99.90;;;6.43;100.00;100566.03;5245370;28;20051;-52
2023/12/09 04:24:57;;;;;;;4.40;1.65;;;6.60;99.90;;;6.43;100.00;100573.78;5262727;28;20059;-50
2023/12/09 04:27:31;;;;;;;4.70;1.70;;;6.70;99.90;;;6.44;100.00;100577.28;5260348;28;20044;-54
2023/12/09 04:30:05;;;;;;;5.63;2.28;;;6.60;99.90;;;6.42;100.00;100579.78;5262622;28;20047;-47
2023/12/09 04:32:37;;;;;;;5.93;2.75;;;6.60;99.90;;;6.43;100.00;100585.84;5243469;28;20139;-50
2023/12/09 04:35:10;;;;;;;6.75;1.90;;;6.70;99.90;;;6.43;100.00;100585.84;5260054;28;20507;-48
2023/12/09 04:37:43;;;;;;;5.03;2.03;;;6.70;99.90;;;6.43;100.00;100591.03;5261170;28;20063;-48
2023/12/09 04:40:16;;;;;;;4.30;1.70;;;6.60;99.90;;;6.42;100.00;100589.25;5263035;28;20052;-48
2023/12/09 04:42:53;;;;;;;4.75;2.00;;;6.60;99.90;;;6.42;100.00;100584.09;5250808;28;20062;-47
2023/12/09 04:45:25;;;;;;;2.90;1.60;;;6.60;99.90;;;6.41;100.00;100572.84;5261535;28;20251;-49
2023/12/09 04:47:57;;;;;;;3.88;1.55;;;6.60;99.90;;;6.42;100.00;100571.13;5251064;28;20079;-53
2023/12/09 04:50:30;;;;;;;3.00;1.67;;;6.60;99.90;;;6.43;100.00;100580.69;5260440;28;20048;-52
2023/12/09 04:53:02;;;;;;;2.60;1.23;;;6.60;99.90;;;6.42;100.00;100590.16;5250614;28;20131;-50
2023/12/09 04:55:35;;;;;;;2.78;1.73;;;6.60;99.90;;;6.44;100.00;100582.44;5259270;28;20414;-49
2023/12/09 04:58:08;;;;;;;1.92;1.35;;;6.60;99.90;;;6.48;100.00;100580.09;5259183;28;20514;-49
2023/12/09 05:00:41;;;;;;;4.90;1.92;;;6.70;99.90;;;6.54;100.00;100584.66;5248428;28;20752;-49
2023/12/09 05:03:13;;;;;;;2.83;1.98;;;6.70;99.90;;;6.58;100.00;100580.50;5262435;28;20134;-48
2023/12/09 05:05:46;;;;;;;8.57;2.33;;;6.70;99.90;;;6.59;100.00;100583.19;5253627;28;20036;-49
2023/12/09 05:08:18;;;;;;;4.88;2.42;;;6.70;99.90;;;6.60;100.00;100582.38;5264916;28;20064;-49
2023/12/09 05:10:51;;;;;;;6.20;2.28;;;6.80;99.90;;;6.63;100.00;100577.31;5254666;28;20044;-49
2023/12/09 05:13:24;;;;;;;8.07;2.95;;;6.80;99.90;;;6.60;100.00;100564.25;5270109;28;20059;-50
2023/12/09 05:15:57;;;;;;;9.05;2.95;;;6.80;99.90;;;6.56;100.00;100561.44;5264832;28;20083;-51
2023/12/09 05:18:29;;;;;;;6.05;2.45;;;6.80;99.90;;;6.48;100.00;100551.59;5253477;28;20064;-47
2023/12/09 05:21:04;;;;;;;10.10;2.50;;;6.80;99.90;;;6.42;100.00;100545.25;5244416;28;20624;-49
2023/12/09 05:23:37;;;;;;;6.75;2.85;;;6.80;99.90;;;6.38;100.00;100545.91;5264400;28;20072;-53
2023/12/09 05:26:10;;;;;;;6.28;2.45;;;6.70;99.90;;;6.40;100.00;100542.59;5263309;28;20403;-49
2023/12/09 05:28:43;;;;;;;13.93;6.95;;;6.70;99.90;;;6.36;100.00;100542.38;5263519;28;20117;-50
2023/12/09 05:31:16;;;;;;;14.77;7.40;;;6.70;99.90;;;6.34;100.00;100538.81;5254393;28;20407;-48
2023/12/09 05:33:48;;;;;;;15.45;4.57;;;6.60;99.90;;;6.30;100.00;100534.31;5263985;28;20064;-48
2023/12/09 05:36:21;;;;;;;14.23;5.63;;;6.60;99.90;;;6.29;100.00;100527.34;5264452;28;20048;-49
2023/12/09 05:38:53;;;;;;;11.90;5.53;;;6.60;99.90;;;6.29;100.00;100525.66;5253678;28;20054;-52
2023/12/09 05:41:26;;;;;;;30.55;13.05;;;6.60;99.90;;;6.28;100.00;100513.53;5265081;28;20048;-51
2023/12/09 05:43:59;;;;;;;17.63;8.27;;;6.60;99.90;;;6.28;100.00;100510.94;5248868;28;20134;-50
2023/12/09 05:46:32;;;;;;;16.85;7.03;;;6.60;99.90;;;6.29;100.00;100517.88;5258753;28;20048;-52
2023/12/09 05:49:04;;;;;;;18.42;8.55;;;6.60;99.90;;;6.29;100.00;100509.25;5251920;28;20040;-49
2023/12/09 05:51:37;;;;;;;12.57;6.28;;;6.60;99.90;;;6.29;100.00;100509.25;5246088;28;20040;-48
2023/12/09 05:54:09;;;;;;;9.50;4.95;;;6.60;99.90;;;6.29;100.00;100507.53;5262485;28;20483;-48
2023/12/09 05:56:48;;;;;;;7.90;4.10;;;6.60;99.90;;;6.31;100.00;100494.66;5264537;28;20052;-48
2023/12/09 05:59:21;;;;;;;8.88;3.30;;;6.60;99.90;;;6.30;100.00;100506.72;5263902;28;20453;-52
2023/12/09 06:01:55;;;;;;;6.85;2.72;;;6.60;99.90;;;6.29;100.00;100499.78;5247817;28;20673;-49
2023/12/09 06:04:28;;;;;;;6.60;2.33;;;6.60;99.90;;;6.31;100.00;100497.25;5253159;28;20054;-47
2023/12/09 06:07:00;;;;;;;5.00;2.50;;;6.60;99.90;;;6.32;100.00;100501.59;5261435;28;20055;-48
2023/12/09 06:09:33;;;;;;;6.32;2.58;;;6.60;99.90;;;6.33;100.00;100493.03;5264100;28;20519;-52
2023/12/09 06:12:06;;;;;;;6.28;2.85;;;6.60;99.90;;;6.34;100.00;100497.41;5264406;28;20340;-49
2023/12/09 06:14:39;;;;;;;6.47;2.28;;;6.60;99.90;;;6.34;100.00;100493.13;5264132;28;20139;-50
2023/12/09 06:17:12;;;;;;;3.88;2.50;;;6.60;99.90;;;6.34;100.00;100479.28;5262364;28;20037;-48
2023/12/09 06:19:44;;;;;;;5.07;2.10;;;6.60;99.90;;;6.35;100.00;100494.00;5265983;28;20046;-48
2023/12/09 06:22:16;;;;;;;4.43;2.13;;;6.50;99.90;;;6.34;100.00;100490.53;5262633;28;20057;-49
2023/12/09 06:24:52;;;;;;;7.13;1.85;;;6.60;99.90;;;6.33;100.00;100493.94;5263701;28;20051;-52
2023/12/09 06:27:25;;;;;;;3.88;1.92;;;6.60;99.90;;;6.34;100.00;100495.69;5267364;28;20044;-49
2023/12/09 06:29:59;;;;;;;4.43;1.92;;;6.50;99.90;;;6.32;100.00;100494.72;5254018;28;20054;-52
2023/12/09 06:32:31;;;;;;;4.25;2.05;;;6.50;99.90;;;6.31;100.00;100492.94;5263676;28;20531;-48
2023/12/09 06:35:04;;;;;;;3.17;1.65;;;6.50;99.90;;;6.32;100.00;100491.25;5254853;28;20070;-51
2023/12/09 06:37:36;;;;;;;6.68;2.40;;;6.60;99.90;;;6.31;100.00;100481.72;5263736;28;20040;-52
2023/12/09 06:40:11;;;;;;;5.40;2.53;;;6.60;99.90;;;6.30;100.00;100486.00;5262738;28;20151;-47
2023/12/09 06:42:43;;;;;;;7.50;2.92;;;6.50;99.90;;;6.31;100.00;100484.31;5263362;28;20048;-48
2023/12/09 06:45:17;;;;;;;5.00;2.40;;;6.50;99.90;;;6.31;100.00;100489.47;5262413;28;20147;-48
2023/12/09 06:47:53;;;;;;;3.90;2.05;;;6.50;99.90;;;6.30;100.00;100477.34;5270003;28;20064;-48
2023/12/09 06:50:25;;;;;;;5.63;2.10;;;6.50;99.90;;;6.32;100.00;100478.31;5266952;28;20044;-48
2023/12/09 06:53:00;;;;;;;7.78;2.53;;;6.50;99.90;;;6.34;100.00;100471.50;5245000;28;20052;-50
2023/12/09 06:55:32;;;;;;;7.32;1.77;;;6.60;99.90;;;6.32;100.00;100468.84;5268479;28;20056;-50
2023/12/09 06:58:05;;;;;;;4.60;1.65;;;6.60;99.90;;;6.31;100.00;100450.66;5254879;28;20047;-48
2023/12/09 07:00:39;;;;;;;4.13;1.85;;;6.60;99.90;;;6.34;100.00;100461.16;5264556;28;20563;-48
2023/12/09 07:03:11;;;;;;;5.63;1.65;;;6.60;99.90;;;6.36;100.00;100454.34;5264363;28;20530;-49
2023/12/09 07:05:45;;;;;;;6.10;1.80;;;6.60;99.90;;;6.35;100.00;100453.47;5246840;28;20044;-49
2023/12/09 07:08:17;;;;;;;4.25;1.70;;;6.60;99.90;;;6.36;100.00;100444.88;5265913;28;20519;-52
2023/12/09 07:10:49;;;;;;;6.70;2.35;;;6.60;99.90;;;6.34;100.00;100432.69;5263671;28;20163;-48
2023/12/09 07:13:22;;;;;;;5.43;1.90;;;6.60;99.90;;;6.35;100.00;100442.22;5262563;28;20627;-48
2023/12/09 07:15:56;;;;;;;3.83;2.03;;;6.60;99.90;;;6.36;100.00;100437.09;5262633;28;20631;-49
2023/12/09 07:18:28;;;;;;;3.83;1.63;;;6.60;99.90;;;6.36;100.00;100441.41;5246843;28;20047;-48
2023/12/09 07:21:00;;;;;;;6.20;1.75;;;6.60;99.90;;;6.36;100.00;100429.34;5253797;28;20040;-53
2023/12/09 07:23:33;;;;;;;5.60;2.08;;;6.60;99.90;;;6.38;100.00;100442.34;5259454;28;20059;-51
2023/12/09 07:26:06;;;;;;;4.75;1.80;;;6.60;99.90;;;6.40;100.00;100443.31;5262723;28;20131;-51
2023/12/09 07:28:39;;;;;;;2.53;1.30;;;6.60;99.90;;;6.41;100.00;100437.31;5259170;28;20534;-50
2023/12/09 07:31:12;;;;;;;4.43;1.67;;;6.60;99.90;;;6.43;100.00;100430.50;5254024;28;20048;-48
2023/12/09 07:33:45;;;;;;;4.22;1.75;;;6.60;99.90;;;6.45;100.00;100428.84;5262136;28;20059;-49
2023/12/09 07:36:18;;;;;;;4.22;1.42;;;6.70;99.90;;;6.49;100.00;100415.25;5261402;28;20055;-48
2023/12/09 07:38:50;;;;;;;3.03;1.45;;;6.70;99.90;;;6.51;100.00;100403.25;5262384;28;20117;-48
2023/12/09 07:41:22;;;;;;;3.70;1.40;;;6.70;99.90;;;6.53;100.00;100417.16;5261530;28;20056;-48
2023/12/09 07:43:55;;;;;;;2.30;1.60;;;6.80;99.90;;;6.56;100.00;100414.69;5257979;28;20048;-49
2023/12/09 07:46:29;;;;;;;4.22;1.48;;;6.80;99.90;;;6.59;100.00;100407.09;5248142;28;20157;-50
2023/12/09 07:49:04;;;;;;;3.95;1.55;;;6.80;99.90;;;6.59;100.00;100404.50;5260743;28;20036;-48
2023/12/09 07:51:36;;;;;;;3.80;1.73;;;6.80;99.90;;;6.62;100.00;100396.84;5254418;28;20041;-51
2023/12/09 07:54:09;;;;;;;6.68;1.65;;;6.80;99.90;;;6.65;100.00;100391.81;5242927;28;20055;-50
2023/12/09 07:56:41;;;;;;;4.80;1.52;;;6.80;99.90;;;6.64;100.00;100395.19;5263538;28;20072;-50
2023/12/09 07:59:14;;;;;;;5.50;1.73;;;6.90;99.90;;;6.66;100.00;100384.94;5261113;28;20503;-49
2023/12/09 08:01:47;;;;;;;6.22;1.85;;;6.90;99.90;;;6.63;100.00;100370.13;5245919;28;20051;-49
2023/12/09 08:04:20;;;;;;;5.63;1.90;;;6.80;99.90;;;6.62;100.00;100360.59;5253872;28;20044;-48
2023/12/09 08:06:53;;;;;;;6.43;3.05;;;6.80;99.90;;;6.62;100.00;100354.53;5244900;28;20048;-49
2023/12/09 08:09:26;;;;;;;4.75;2.05;;;6.80;99.90;;;6.63;100.00;100357.16;5252436;28;20082;-49
2023/12/09 08:11:58;;;;;;;6.18;1.98;;;6.80;99.90;;;6.68;100.00;100359.97;5249189;28;20048;-49
2023/12/09 08:14:31;;;;;;;4.10;1.77;;;6.90;99.90;;;6.73;100.00;100348.13;5247834;28;20510;-49
2023/12/09 08:17:05;;;;;;;6.05;2.08;;;7.00;99.90;;;6.75;100.00;100336.97;5245498;28;20253;-53
2023/12/09 08:19:38;;;;;;;9.52;2.38;;;7.00;99.90;;;6.79;100.00;100327.66;5259255;28;20064;-54
2023/12/09 08:22:10;;;;;;;6.88;2.20;;;7.00;99.90;;;6.77;100.00;100324.97;5259368;28;20044;-49
2023/12/09 08:24:42;;;;;;;6.30;2.10;;;7.00;99.90;;;6.79;100.00;100332.84;5259758;28;20702;-48
2023/12/09 08:27:15;;;;;;;7.80;1.83;;;7.10;99.90;;;6.82;100.00;100320.00;5258985;28;20050;-49
2023/12/09 08:29:47;;;;;;;5.65;1.92;;;7.10;99.90;;;6.86;100.00;100300.28;5263037;28;20127;-49
2023/12/09 08:32:21;;;;;;;8.45;2.38;;;7.10;99.90;;;6.91;100.00;100303.94;5259882;28;20045;-53
2023/12/09 08:34:53;;;;;;;5.28;1.98;;;7.10;99.90;;;6.96;100.00;100302.44;5261298;28;20075;-48
2023/12/09 08:37:26;;;;;;;4.75;1.65;;;7.20;99.90;;;7.01;100.00;100299.22;5255170;28;20552;-50
2023/12/09 08:40:05;;;;;;;10.55;2.20;;;7.20;99.90;;;7.05;100.00;100295.06;5267222;28;20517;-51
2023/12/09 08:42:39;;;;;;;4.00;1.83;;;7.20;99.90;;;7.08;100.00;100282.19;5248995;28;20703;-49
2023/12/09 08:45:13;;;;;;;4.68;1.70;;;7.30;99.90;;;7.11;100.00;100279.75;5253821;28;20445;-49
2023/12/09 08:47:47;;;;;;;8.73;1.67;;;7.30;99.90;;;7.16;100.00;100301.53;5265123;28;20502;-48
2023/12/09 08:50:20;;;;;;;7.78;2.00;;;7.40;99.90;;;7.21;100.00;100306.91;5248601;28;20402;-49
2023/12/09 08:52:52;;;;;;;8.45;2.00;;;7.40;99.90;;;7.25;100.00;100307.09;5262539;28;20418;-50
2023/12/09 08:55:28;;;;;;;6.90;2.13;;;7.40;99.90;;;7.31;100.00;100314.25;5260860;28;20071;-52
2023/12/09 08:58:00;;;;;;;4.10;1.95;;;7.50;99.90;;;7.32;100.00;100301.34;5262437;28;20075;-49
2023/12/09 09:00:32;;;;;;;4.90;2.20;;;7.50;99.90;;;7.36;100.00;100294.56;5247807;28;20693;-50
2023/12/09 09:03:06;;;;;;;4.80;2.17;;;7.50;99.90;;;7.39;100.00;100307.66;5258814;28;20044;-51
2023/12/09 09:05:39;;;;;;;4.25;1.63;;;7.60;99.90;;;7.41;100.00;100294.75;5265811;28;20274;-53
2023/12/09 09:08:11;;;;;;;5.93;2.50;;;7.60;99.90;;;7.43;100.00;100291.38;5266144;28;20128;-50
2023/12/09 09:10:44;;;;;;;7.40;2.15;;;7.60;99.90;;;7.47;100.00;100295.88;5265889;28;20052;-49
2023/12/09 09:13:19;;;;;;;8.27;2.20;;;7.60;99.90;;;7.51;100.00;100297.78;5262987;28;20115;-48
2023/12/09 09:15:52;;;;;;;6.57;2.05;;;7.60;99.90;;;7.52;100.00;100296.06;5262646;28;20072;-52
2023/12/09 09:18:26;;;;;;;4.40;2.03;;;7.70;99.90;;;7.54;100.00;100302.19;5266226;28;20067;-49
2023/12/09 09:20:58;;;;;;;6.07;1.92;;;7.70;99.90;;;7.56;100.00;100297.94;5262539;28;21699;-48
2023/12/09 09:23:31;;;;;;;5.22;1.95;;;7.70;99.90;;;7.58;100.00;100289.41;5264454;28;20040;-49
2023/12/09 09:26:05;;;;;;;7.70;2.30;;;7.70;99.90;;;7.62;100.00;100277.41;5262007;28;20059;-51
2023/12/09 09:28:37;;;;;;;5.28;1.90;;;7.80;99.90;;;7.69;100.00;100292.38;5259944;28;20356;-49
2023/12/09 09:31:12;;;;;;;5.47;1.90;;;7.80;99.90;;;7.75;100.00;100286.56;5267160;28;20048;-53
2023/12/09 09:33:46;;;;;;;9.77;1.92;;;7.90;99.90;;;7.78;100.00;100287.56;5240802;28;20135;-50
2023/12/09 09:36:20;;;;;;;5.32;1.67;;;7.90;99.90;;;7.88;100.00;100273.19;5271606;28;20058;-51
2023/12/09 09:38:52;;;;;;;11.40;3.38;;;8.00;99.90;;;7.98;100.00;100264.94;5263279;28;20510;-54
2023/12/09 09:41:32;;;;;;;7.47;2.47;;;8.10;99.90;;;8.10;100.00;100260.22;5257434;28;20449;-50
2023/12/09 09:44:11;;;;;;;7.30;3.03;;;8.20;99.90;;;8.25;100.00;100254.66;5253668;28;20105;-50
2023/12/09 09:46:46;;;;;;;9.57;3.97;;;8.30;99.90;;;8.37;100.00;100242.16;5265200;28;20048;-49
2023/12/09 09:49:25;;;;;;;7.35;2.60;;;8.40;99.90;;;8.45;100.00;100231.13;5259157;28;20047;-50
2023/12/09 09:52:00;;;;;;;6.50;2.03;;;8.50;99.90;;;8.47;100.00;100225.16;5262029;28;20048;-50
2023/12/09 09:54:34;;;;;;;9.68;1.88;;;8.60;99.90;;;8.48;100.00;100216.56;5256271;28;20064;-53
2023/12/09 09:57:08;;;;;;;6.45;1.92;;;8.60;99.90;;;8.52;100.00;100213.22;5261503;28;20055;-48
2023/12/09 09:59:40;;;;;;;7.00;1.65;;;8.60;99.90;;;8.55;100.00;100207.25;5261904;28;20119;-50
2023/12/09 10:02:16;;;;;;;7.93;1.80;;;8.70;99.90;;;8.57;100.00;100195.19;5243943;28;20048;-53
2023/12/09 10:04:50;;;;;;;8.30;1.90;;;8.70;99.90;;;8.54;100.00;100179.47;5257038;28;20047;-51
2023/12/09 10:07:23;;;;;;;8.00;1.95;;;8.70;99.90;;;8.54;100.00;100175.19;5264487;28;20067;-49
2023/12/09 10:09:55;;;;;;;9.00;1.70;;;8.70;99.90;;;8.60;100.00;100164.09;5263009;28;20419;-51
2023/12/09 10:12:28;;;;;;;7.10;1.85;;;8.70;99.90;;;8.67;100.00;100169.56;5264852;28;20564;-51
2023/12/09 10:15:02;;;;;;;7.07;2.30;;;8.80;99.90;;;8.70;100.00;100161.88;5255220;28;20055;-49
2023/12/09 10:17:40;;;;;;;9.32;1.80;;;8.80;99.90;;;8.70;100.00;100137.59;5259712;28;20503;-50
2023/12/09 10:20:15;;;;;;;4.82;1.70;;;8.80;99.90;;;8.72;100.00;100133.31;5245132;28;20086;-51
2023/12/09 10:22:48;;;;;;;8.07;1.88;;;8.90;99.90;;;8.77;100.00;100120.47;5261831;28;20162;-50
2023/12/09 10:25:24;;;;;;;10.63;2.10;;;8.90;99.90;;;8.84;100.00;100125.03;5264632;28;20142;-49
2023/12/09 10:27:59;;;;;;;7.45;1.88;;;8.90;99.90;;;8.88;100.00;100111.31;5261593;28;20040;-50
2023/12/09 10:30:32;;;;;;;4.95;1.52;;;9.00;99.90;;;8.97;100.00;100098.59;5258384;28;20048;-48
2023/12/09 10:33:05;;;;;;;5.25;2.08;;;9.00;99.90;;;9.04;100.00;100094.44;5256830;28;20052;-52
2023/12/09 10:35:40;;;;;;;5.43;1.90;;;9.10;99.90;;;9.16;100.00;100105.22;5248611;28;20051;-52
2023/12/09 10:38:16;;;;;;;7.35;1.52;;;9.20;99.90;;;9.12;100.00;100082.53;5254533;28;20048;-54
2023/12/09 10:40:49;;;;;;;10.35;1.83;;;9.20;99.90;;;9.17;100.00;100070.56;5254140;28;20541;-51
2023/12/09 10:43:25;;;;;;;4.82;1.95;;;9.30;99.90;;;9.20;100.00;100066.34;5264242;28;20055;-50